createdAt,value
2019-05-02T00:00:12.636Z,101544.52
2019-05-02T00:02:41.347Z,101539.91
2019-05-02T00:05:11.660Z,101543.83
2019-05-02T00:07:41.185Z,101542.69
2019-05-02T00:10:13.487Z,101543.59
2019-05-02T00:12:42.384Z,101540.85
2019-05-02T00:15:12.011Z,101548.45
2019-05-02T00:17:40.759Z,101536.64
2019-05-02T00:20:10.348Z,101535.77
2019-05-02T00:22:38.571Z,101536.13
2019-05-02T00:25:10.990Z,101534.52
2019-05-02T00:27:38.820Z,101522.53
2019-05-02T00:30:08.000Z,101525.09
2019-05-02T00:32:36.223Z,101525.67
2019-05-02T00:35:05.624Z,101524.73
2019-05-02T00:37:34.753Z,101522.65
2019-05-02T00:40:02.899Z,101528.94
2019-05-02T00:42:32.618Z,101523.84
2019-05-02T00:45:01.017Z,101517.92
2019-05-02T00:47:35.701Z,101519.25
2019-05-02T00:50:06.281Z,101517.52
2019-05-02T00:52:36.669Z,101519.06
2019-05-02T00:55:05.202Z,101513.89
2019-05-02T00:57:34.930Z,101511.94
2019-05-02T01:00:04.270Z,101513.41
2019-05-02T01:02:41.861Z,101506.31
2019-05-02T01:05:09.799Z,101499.77
2019-05-02T01:07:38.292Z,101504.58
2019-05-02T01:10:08.651Z,101503.70
2019-05-02T01:12:39.935Z,101497.09
2019-05-02T01:15:09.710Z,101492.83
2019-05-02T01:17:38.131Z,101498.41
2019-05-02T01:20:06.410Z,101493.64
2019-05-02T01:22:34.456Z,101491.22
2019-05-02T01:25:02.272Z,101493.88
2019-05-02T01:27:56.203Z,101488.55
2019-05-02T01:30:55.526Z,101484.10
2019-05-02T01:33:36.891Z,101471.71
2019-05-02T01:36:12.232Z,101466.14
2019-05-02T01:38:46.010Z,101465.05
2019-05-02T01:41:13.921Z,101467.30
2019-05-02T01:43:42.737Z,101465.95
2019-05-02T01:46:10.953Z,101466.42
2019-05-02T01:48:40.297Z,101460.07
2019-05-02T01:51:10.224Z,101456.80
2019-05-02T01:53:38.460Z,101456.02
2019-05-02T01:56:06.256Z,101453.84
2019-05-02T01:58:33.957Z,101460.66
2019-05-02T02:01:01.867Z,101459.92
2019-05-02T02:03:29.672Z,101451.28
2019-05-02T02:05:57.348Z,101448.38
2019-05-02T02:08:27.513Z,101452.28
2019-05-02T02:10:56.613Z,101454.48
2019-05-02T02:13:24.789Z,101450.56
2019-05-02T02:15:52.605Z,101439.84
2019-05-02T02:18:22.292Z,101448.02
2019-05-02T02:21:01.618Z,101441.55
2019-05-02T02:23:39.700Z,101443.11
2019-05-02T02:26:11.928Z,101442.24
2019-05-02T02:28:38.668Z,101434.98
2019-05-02T02:31:07.904Z,101442.81
2019-05-02T02:33:40.871Z,101439.38
2019-05-02T02:36:05.789Z,101441.27
2019-05-02T02:38:35.486Z,101441.01
2019-05-02T02:41:06.597Z,101439.61
2019-05-02T02:43:34.886Z,101447.26
2019-05-02T02:46:21.679Z,101451.16
2019-05-02T02:48:51.062Z,101442.53
2019-05-02T02:51:24.049Z,101440.27
2019-05-02T02:53:48.465Z,101433.20
2019-05-02T02:56:16.151Z,101431.38
2019-05-02T02:58:47.465Z,101420.95
2019-05-02T03:01:13.742Z,101424.40
2019-05-02T03:03:41.560Z,101421.84
2019-05-02T03:06:09.361Z,101417.46
2019-05-02T03:08:44.990Z,101415.70
2019-05-02T03:11:08.152Z,101415.84
2019-05-02T03:13:52.479Z,101405.50
2019-05-02T03:16:21.685Z,101406.43
2019-05-02T03:18:49.433Z,101395.81
2019-05-02T03:21:20.835Z,101394.41
2019-05-02T03:23:46.871Z,101401.48
2019-05-02T03:26:17.088Z,101390.40
2019-05-02T03:28:44.632Z,101392.54
2019-05-02T03:31:23.640Z,101390.81
2019-05-02T03:33:54.863Z,101386.03
2019-05-02T03:36:25.737Z,101391.86
2019-05-02T03:38:42.085Z,101383.58
2019-05-02T03:41:13.288Z,101380.14
2019-05-02T03:43:40.383Z,101380.03
2019-05-02T03:46:13.531Z,101380.98
2019-05-02T03:48:38.178Z,101377.91
2019-05-02T03:51:19.248Z,101378.42
2019-05-02T03:53:35.860Z,101375.94
2019-05-02T03:56:10.872Z,101372.33
2019-05-02T03:58:33.353Z,101362.03
2019-05-02T04:01:03.319Z,101374.30
2019-05-02T04:03:34.063Z,101368.54
2019-05-02T04:06:00.820Z,101374.30
2019-05-02T04:08:29.105Z,101377.17
2019-05-02T04:11:23.987Z,101369.31
2019-05-02T04:13:54.157Z,101370.09
2019-05-02T04:16:24.104Z,101371.45
2019-05-02T04:18:55.697Z,101372.06
2019-05-02T04:21:24.249Z,101369.48
2019-05-02T04:23:51.774Z,101372.44
2019-05-02T04:26:19.758Z,101368.95
2019-05-02T04:28:51.890Z,101369.41
2019-05-02T04:31:17.478Z,101368.02
2019-05-02T04:33:45.152Z,101365.31
2019-05-02T04:36:15.135Z,101365.31
2019-05-02T04:38:47.962Z,101364.83
2019-05-02T04:41:21.438Z,101359.94
2019-05-02T04:43:54.590Z,101352.97
2019-05-02T04:46:22.105Z,101348.39
2019-05-02T04:48:48.625Z,101349.69
2019-05-02T04:51:16.358Z,101351.70
2019-05-02T04:53:45.368Z,101348.23
2019-05-02T04:56:12.646Z,101351.66
2019-05-02T04:58:40.878Z,101347.22
2019-05-02T05:01:10.086Z,101351.45
2019-05-02T05:03:38.063Z,101352.22
2019-05-02T05:06:07.957Z,101346.84
2019-05-02T05:08:35.757Z,101347.32
2019-05-02T05:11:03.427Z,101351.17
2019-05-02T05:13:31.136Z,101358.45
2019-05-02T05:16:02.993Z,101355.38
2019-05-02T05:18:28.647Z,101351.68
2019-05-02T05:20:57.748Z,101358.78
2019-05-02T05:23:59.569Z,101346.44
2019-05-02T05:26:27.530Z,101347.96
2019-05-02T05:28:55.303Z,101347.91
2019-05-02T05:31:24.375Z,101351.44
2019-05-02T05:33:53.045Z,101348.52
2019-05-02T05:36:29.285Z,101352.02
2019-05-02T05:38:50.637Z,101354.97
2019-05-02T05:41:23.024Z,101349.86
2019-05-02T05:43:50.091Z,101352.03
2019-05-02T05:46:17.993Z,101354.34
2019-05-02T05:48:47.621Z,101353.97
2019-05-02T05:51:16.976Z,101351.81
2019-05-02T05:53:45.096Z,101356.30
2019-05-02T05:56:12.908Z,101356.30
2019-05-02T05:58:48.048Z,101355.66
2019-05-02T06:01:10.420Z,101360.89
2019-05-02T06:03:41.500Z,101356.03
2019-05-02T06:06:10.021Z,101350.96
2019-05-02T06:08:37.675Z,101352.80
2019-05-02T06:11:05.546Z,101347.16
2019-05-02T06:13:33.240Z,101347.77
2019-05-02T06:16:02.996Z,101355.67
2019-05-02T06:18:30.696Z,101348.84
2019-05-02T06:20:58.560Z,101347.40
2019-05-02T06:23:26.333Z,101339.31
2019-05-02T06:25:54.208Z,101336.58
2019-05-02T06:28:21.886Z,101335.30
2019-05-02T06:30:49.762Z,101336.34
2019-05-02T06:33:17.459Z,101333.98
2019-05-02T06:35:45.324Z,101335.53
2019-05-02T06:38:13.152Z,101333.02
2019-05-02T06:40:44.713Z,101326.31
2019-05-02T06:43:11.436Z,101324.23
2019-05-02T06:45:39.664Z,101321.05
2019-05-02T06:48:07.556Z,101326.42
2019-05-02T06:50:38.819Z,101324.05
2019-05-02T06:53:09.744Z,101312.10
2019-05-02T06:55:38.663Z,101312.39
2019-05-02T06:58:08.340Z,101309.70
2019-05-02T07:00:51.694Z,101307.69
2019-05-02T07:03:10.334Z,101301.62
2019-05-02T07:05:35.871Z,101297.99
2019-05-02T07:08:06.678Z,101299.05
2019-05-02T07:10:44.075Z,101298.77
2019-05-02T07:13:10.770Z,101291.63
2019-05-02T07:15:44.867Z,101308.72
2019-05-02T07:18:14.176Z,101303.23
2019-05-02T07:20:42.569Z,101307.45
2019-05-02T07:23:15.863Z,101305.88
2019-05-02T07:25:44.000Z,101301.16
2019-05-02T07:28:10.804Z,101298.11
2019-05-02T07:30:39.075Z,101289.28
2019-05-02T07:33:06.952Z,101291.16
2019-05-02T07:35:34.895Z,101284.63
2019-05-02T07:38:04.433Z,101284.40
2019-05-02T07:40:32.164Z,101293.62
2019-05-02T07:43:00.080Z,101286.91
2019-05-02T07:45:27.949Z,101286.39
2019-05-02T07:47:56.155Z,101290.58
2019-05-02T07:50:23.902Z,101290.13
2019-05-02T07:52:51.759Z,101280.47
2019-05-02T07:55:19.637Z,101287.33
2019-05-02T07:57:47.451Z,101283.74
2019-05-02T08:00:17.491Z,101284.41
2019-05-02T08:02:45.390Z,101287.85
2019-05-02T08:05:15.537Z,101277.06
2019-05-02T08:07:45.240Z,101281.23
2019-05-02T08:10:16.215Z,101281.54
2019-05-02T08:12:44.059Z,101272.55
2019-05-02T08:15:13.168Z,101286.84
2019-05-02T08:17:41.530Z,101277.76
2019-05-02T08:20:13.658Z,101271.49
2019-05-02T08:22:39.210Z,101270.86
2019-05-02T08:25:10.880Z,101271.23
2019-05-02T08:27:58.161Z,101266.89
2019-05-02T08:30:30.148Z,101269.81
2019-05-02T08:32:57.877Z,101269.30
2019-05-02T08:35:28.130Z,101261.45
2019-05-02T08:37:56.085Z,101257.98
2019-05-02T08:40:24.404Z,101259.67
2019-05-02T08:42:52.119Z,101262.33
2019-05-02T08:45:19.807Z,101259.92
2019-05-02T08:47:49.345Z,101254.83
2019-05-02T08:50:17.400Z,101252.27
2019-05-02T08:52:47.925Z,101250.00
2019-05-02T08:55:14.940Z,101249.89
2019-05-02T08:57:42.641Z,101246.45
2019-05-02T09:00:16.826Z,101251.96
2019-05-02T09:02:44.705Z,101251.69
2019-05-02T09:05:12.497Z,101252.56
2019-05-02T09:07:42.876Z,101255.46
2019-05-02T09:10:10.530Z,101253.59
2019-05-02T09:12:42.084Z,101248.48
2019-05-02T09:15:09.031Z,101245.34
2019-05-02T09:17:38.853Z,101248.38
2019-05-02T09:20:14.927Z,101242.55
2019-05-02T09:22:36.474Z,101240.86
2019-05-02T09:25:04.656Z,101242.87
2019-05-02T09:27:32.421Z,101239.31
2019-05-02T09:30:02.350Z,101239.90
2019-05-02T09:32:30.087Z,101238.80
2019-05-02T09:35:02.200Z,101243.78
2019-05-02T09:37:27.683Z,101244.73
2019-05-02T09:39:55.396Z,101236.58
2019-05-02T09:42:23.331Z,101240.99
2019-05-02T09:44:53.360Z,101235.31
2019-05-02T09:47:22.286Z,101237.73
2019-05-02T09:50:06.554Z,101239.39
2019-05-02T09:52:39.564Z,101240.48
2019-05-02T09:55:05.408Z,101244.16
2019-05-02T09:57:33.108Z,101247.19
2019-05-02T10:00:02.160Z,101242.44
2019-05-02T10:02:30.328Z,101246.11
2019-05-02T10:04:58.686Z,101242.98
2019-05-02T10:07:26.665Z,101243.47
2019-05-02T10:09:57.746Z,101238.08
2019-05-02T10:12:24.031Z,101242.34
2019-05-02T10:14:52.678Z,101243.83
2019-05-02T10:17:23.119Z,101240.75
2019-05-02T10:19:54.943Z,101237.42
2019-05-02T10:22:22.825Z,101232.83
2019-05-02T10:24:51.979Z,101234.33
2019-05-02T10:27:22.337Z,101228.33
2019-05-02T10:29:52.338Z,101235.11
2019-05-02T10:32:22.638Z,101222.70
2019-05-02T10:34:55.221Z,101217.78
2019-05-02T10:37:21.721Z,101209.80
2019-05-02T10:39:49.773Z,101212.53
2019-05-02T10:42:17.742Z,101210.01
2019-05-02T10:44:47.334Z,101213.16
2019-05-02T10:47:15.082Z,101214.48
2019-05-02T10:50:05.542Z,101211.59
2019-05-02T10:52:34.204Z,101201.61
2019-05-02T10:55:02.724Z,101196.98
2019-05-02T10:57:32.571Z,101203.76
2019-05-02T11:00:00.583Z,101200.37
2019-05-02T11:02:53.811Z,101197.67
2019-05-02T11:05:26.561Z,101199.29
2019-05-02T11:07:56.818Z,101195.71
2019-05-02T11:10:26.754Z,101191.95
2019-05-02T11:13:17.280Z,101197.67
2019-05-02T11:16:12.426Z,101191.39
2019-05-02T11:19:06.527Z,101190.80
2019-05-02T11:21:34.347Z,101191.09
2019-05-02T11:24:02.605Z,101185.63
2019-05-02T11:26:32.415Z,101182.70
2019-05-02T11:29:02.741Z,101183.61
2019-05-02T11:31:32.274Z,101177.72
2019-05-02T11:34:01.647Z,101179.53
2019-05-02T11:36:29.436Z,101172.19
2019-05-02T11:39:08.966Z,101174.58
2019-05-02T11:41:27.071Z,101170.78
2019-05-02T11:43:55.845Z,101163.84
2019-05-02T11:46:23.847Z,101170.04
2019-05-02T11:48:56.393Z,101169.86
2019-05-02T11:51:22.676Z,101139.77
2019-05-02T11:53:52.624Z,101171.69
2019-05-02T11:56:22.141Z,101171.33
2019-05-02T11:58:50.338Z,101171.94
2019-05-02T12:01:20.204Z,101169.91
2019-05-02T12:03:52.472Z,101175.28
2019-05-02T12:06:22.540Z,101169.25
2019-05-02T12:08:52.496Z,101162.24
2019-05-02T12:11:22.607Z,101168.55
2019-05-02T12:13:52.839Z,101171.18
2019-05-02T12:16:22.603Z,101166.95
2019-05-02T12:18:50.022Z,101167.93
2019-05-02T12:21:17.974Z,101170.77
2019-05-02T12:23:45.745Z,101174.02
2019-05-02T12:26:13.704Z,101165.44
2019-05-02T12:28:42.903Z,101174.76
2019-05-02T12:31:25.990Z,101176.77
2019-05-02T12:33:54.384Z,101172.16
2019-05-02T12:36:22.768Z,101177.67
2019-05-02T12:38:52.644Z,101173.54
2019-05-02T12:41:26.586Z,101180.81
2019-05-02T12:43:54.341Z,101173.23
2019-05-02T12:46:22.322Z,101184.34
2019-05-02T12:48:51.974Z,101185.80
2019-05-02T12:51:19.980Z,101188.06
2019-05-02T12:53:47.957Z,101178.41
2019-05-02T12:56:17.992Z,101181.17
2019-05-02T12:58:46.993Z,101195.14
2019-05-02T13:01:14.879Z,101186.95
2019-05-02T13:03:51.812Z,101178.77
2019-05-02T13:06:21.996Z,101185.08
2019-05-02T13:08:52.107Z,101187.80
2019-05-02T13:11:32.134Z,101186.28
2019-05-02T13:14:02.072Z,101176.22
2019-05-02T13:16:29.790Z,101185.70
2019-05-02T13:19:02.246Z,101183.37
2019-05-02T13:21:40.071Z,101187.80
2019-05-02T13:24:29.159Z,101184.41
2019-05-02T13:26:59.277Z,101181.69
2019-05-02T13:29:24.247Z,101171.09
2019-05-02T13:32:12.970Z,101176.57
2019-05-02T13:34:57.864Z,101172.50
2019-05-02T13:37:26.343Z,101177.99
2019-05-02T13:40:12.011Z,101171.73
2019-05-02T13:42:41.801Z,101178.48
2019-05-02T13:45:21.812Z,101167.09
2019-05-02T13:47:49.569Z,101172.09
2019-05-02T13:50:17.637Z,101169.70
2019-05-02T13:52:53.125Z,101170.70
2019-05-02T13:55:17.962Z,101168.09
2019-05-02T13:57:47.055Z,101167.12
2019-05-02T14:00:25.152Z,101167.20
2019-05-02T14:02:53.163Z,101154.57
2019-05-02T14:05:22.240Z,101153.41
2019-05-02T14:07:54.054Z,101155.27
2019-05-02T14:10:39.256Z,101149.64
2019-05-02T14:13:03.359Z,101148.14
2019-05-02T14:15:37.807Z,101145.25
2019-05-02T14:18:05.790Z,101154.70
2019-05-02T14:20:33.610Z,101148.99
2019-05-02T14:23:02.200Z,101152.96
2019-05-02T14:25:32.138Z,101151.55
2019-05-02T14:27:59.952Z,101146.33
2019-05-02T14:30:37.322Z,101145.97
2019-05-02T14:33:02.416Z,101141.63
2019-05-02T14:35:35.834Z,101140.52
2019-05-02T14:38:09.520Z,101134.34
2019-05-02T14:43:38.198Z,101136.80
2019-05-02T14:46:12.588Z,101134.08
2019-05-02T14:48:45.264Z,101129.03
2019-05-02T14:51:16.605Z,101139.57
2019-05-02T14:53:43.135Z,101137.02
2019-05-02T14:56:16.692Z,101127.94
2019-05-02T14:58:44.468Z,101129.64
2019-05-02T15:01:16.885Z,101123.97
2019-05-02T15:03:42.369Z,101120.76
2019-05-02T15:06:11.731Z,101121.69
2019-05-02T15:08:44.744Z,101118.89
2019-05-02T15:11:12.550Z,101119.23
2019-05-02T15:13:43.097Z,101114.71
2019-05-02T15:16:17.434Z,101111.10
2019-05-02T15:18:41.898Z,101113.19
2019-05-02T15:21:16.330Z,101113.73
2019-05-02T15:23:42.384Z,101113.05
2019-05-02T15:26:13.722Z,101112.20
2019-05-02T15:28:42.106Z,101115.61
2019-05-02T15:31:19.074Z,101114.45
2019-05-02T15:33:56.246Z,101115.70
2019-05-02T15:36:22.589Z,101117.86
2019-05-02T15:38:50.300Z,101111.56
2019-05-02T15:41:18.122Z,101108.87
2019-05-02T15:43:49.242Z,101117.75
2019-05-02T15:46:22.640Z,101114.82
2019-05-02T15:48:45.686Z,101117.63
2019-05-02T15:51:13.382Z,101120.88
2019-05-02T15:54:05.286Z,101121.16
2019-05-02T15:56:24.360Z,101116.86
2019-05-02T15:58:52.538Z,101122.64
2019-05-02T16:01:41.496Z,101118.28
2019-05-02T16:04:12.577Z,101121.09
2019-05-02T16:06:41.845Z,101110.48
2019-05-02T16:09:09.701Z,101124.33
2019-05-02T16:11:37.571Z,101118.20
2019-05-02T16:14:05.390Z,101119.70
2019-05-02T16:16:36.614Z,101121.89
2019-05-02T16:19:04.045Z,101118.11
2019-05-02T16:21:55.253Z,101124.27
2019-05-02T16:24:23.559Z,101131.81
2019-05-02T16:26:53.093Z,101123.63
2019-05-02T16:29:26.901Z,101115.05
2019-05-02T16:32:22.042Z,101116.31
2019-05-02T16:34:55.124Z,101119.66
2019-05-02T16:37:23.203Z,101117.41
2019-05-02T16:39:51.112Z,101119.26
2019-05-02T16:42:19.158Z,101120.41
2019-05-02T16:44:46.848Z,101115.31
2019-05-02T16:47:14.713Z,101130.95
2019-05-02T16:49:42.557Z,101129.16
2019-05-02T16:52:12.589Z,101135.67
2019-05-02T16:54:41.906Z,101134.74
2019-05-02T16:57:10.117Z,101136.22
2019-05-02T16:59:37.839Z,101140.22
2019-05-02T17:02:07.988Z,101140.93
2019-05-02T17:04:37.508Z,101146.03
2019-05-02T17:07:11.518Z,101150.34
2019-05-02T17:09:49.151Z,101148.67
2019-05-02T17:12:16.923Z,101147.78
2019-05-02T17:15:04.376Z,101149.38
2019-05-02T17:17:34.847Z,101146.47
2019-05-02T17:20:02.683Z,101148.63
2019-05-02T17:22:32.353Z,101153.95
2019-05-02T17:25:02.439Z,101148.87
2019-05-02T17:27:32.358Z,101154.96
2019-05-02T17:30:00.797Z,101151.97
2019-05-02T17:32:34.093Z,101155.07
2019-05-02T17:35:04.552Z,101156.39
2019-05-02T17:37:28.718Z,101158.20
2019-05-02T17:39:56.614Z,101157.33
2019-05-02T17:42:25.752Z,101159.72
2019-05-02T17:44:59.314Z,101166.74
2019-05-02T17:47:24.483Z,101168.29
2019-05-02T17:49:54.099Z,101169.47
2019-05-02T17:52:29.885Z,101162.93
2019-05-02T17:55:01.763Z,101171.84
2019-05-02T17:57:28.525Z,101172.82
2019-05-02T17:59:57.264Z,101178.84
2019-05-02T18:02:25.030Z,101185.92
2019-05-02T18:04:55.835Z,101186.53
2019-05-02T18:07:25.245Z,101183.73
2019-05-02T18:09:52.563Z,101184.23
2019-05-02T18:12:21.773Z,101188.84
2019-05-02T18:14:53.064Z,101186.44
2019-05-02T18:17:19.690Z,101187.07
2019-05-02T18:19:47.624Z,101193.92
2019-05-02T18:22:23.380Z,101194.66
2019-05-02T18:24:46.811Z,101196.80
2019-05-02T18:27:14.738Z,101205.87
2019-05-02T18:29:45.442Z,101198.97
2019-05-02T18:32:12.963Z,101201.78
2019-05-02T18:34:41.811Z,101211.91
2019-05-02T18:37:10.085Z,101201.27
2019-05-02T18:39:45.537Z,101207.30
2019-05-02T18:42:07.531Z,101207.98
2019-05-02T18:44:36.482Z,101204.95
2019-05-02T18:47:04.182Z,101208.20
2019-05-02T18:49:32.208Z,101205.96
2019-05-02T18:52:01.747Z,101214.27
2019-05-02T18:54:31.208Z,101217.16
2019-05-02T18:56:59.298Z,101220.83
2019-05-02T18:59:27.346Z,101218.30
2019-05-02T19:01:57.184Z,101224.09
2019-05-02T19:04:30.100Z,101224.42
2019-05-02T19:06:55.166Z,101219.41
2019-05-02T19:09:29.877Z,101229.60
2019-05-02T19:12:04.490Z,101229.34
2019-05-02T19:14:25.973Z,101228.11
2019-05-02T19:16:52.695Z,101227.41
2019-05-02T19:19:22.451Z,101231.91
2019-05-02T19:21:51.725Z,101234.65
2019-05-02T19:24:19.834Z,101238.17
2019-05-02T19:26:49.823Z,101238.17
2019-05-02T19:29:24.073Z,101243.73
2019-05-02T19:31:52.934Z,101238.14
2019-05-02T19:34:22.760Z,101247.63
2019-05-02T19:36:52.656Z,101245.66
2019-05-02T19:39:23.989Z,101246.48
2019-05-02T19:41:52.060Z,101252.29
2019-05-02T19:44:28.653Z,101256.36
2019-05-02T19:46:51.989Z,101252.38
2019-05-02T19:49:22.459Z,101252.52
2019-05-02T19:51:50.575Z,101261.63
2019-05-02T19:54:21.716Z,101260.78
2019-05-02T19:56:52.376Z,101253.75
2019-05-02T19:59:24.583Z,101255.62
2019-05-02T20:01:52.010Z,101252.85
2019-05-02T20:04:22.194Z,101260.22
2019-05-02T20:06:50.078Z,101263.19
2019-05-02T20:09:18.376Z,101257.98
2019-05-02T20:11:46.116Z,101265.80
2019-05-02T20:14:13.979Z,101263.84
2019-05-02T20:16:49.136Z,101275.80
2019-05-02T20:19:21.889Z,101282.00
2019-05-02T20:22:18.527Z,101282.59
2019-05-02T20:24:58.320Z,101281.33
2019-05-02T20:27:23.447Z,101287.36
2019-05-02T20:29:52.142Z,101284.73
2019-05-02T20:32:21.927Z,101281.37
2019-05-02T20:34:49.977Z,101288.13
2019-05-02T20:37:18.020Z,101290.44
2019-05-02T20:39:45.905Z,101282.41
2019-05-02T20:42:14.111Z,101293.05
2019-05-02T20:44:42.011Z,101285.72
2019-05-02T20:47:16.269Z,101292.05
2019-05-02T20:49:45.313Z,101290.11
2019-05-02T20:52:13.095Z,101293.27
2019-05-02T20:54:42.804Z,101292.05
2019-05-02T20:57:11.970Z,101294.05
2019-05-02T20:59:41.621Z,101299.36
2019-05-02T21:02:09.788Z,101301.62
2019-05-02T21:04:37.678Z,101298.22
2019-05-02T21:07:16.123Z,101304.61
2019-05-02T21:09:57.005Z,101297.66
2019-05-02T21:12:25.016Z,101298.09
2019-05-02T21:14:53.314Z,101293.48
2019-05-02T21:17:22.124Z,101301.84
2019-05-02T21:19:50.139Z,101299.20
2019-05-02T21:22:23.759Z,101295.11
2019-05-02T21:24:52.916Z,101293.04
2019-05-02T21:27:21.774Z,101302.22
2019-05-02T21:29:52.099Z,101303.22
2019-05-02T21:32:19.741Z,101303.92
2019-05-02T21:34:47.517Z,101309.17
2019-05-02T21:37:15.477Z,101311.48
2019-05-02T21:39:43.203Z,101311.73
2019-05-02T21:42:11.105Z,101313.88
2019-05-02T21:44:39.339Z,101309.38
2019-05-02T21:47:07.280Z,101314.15
2019-05-02T21:49:44.865Z,101315.89
2019-05-02T21:52:24.799Z,101327.17
2019-05-02T21:55:01.916Z,101324.94
2019-05-02T21:57:32.055Z,101328.77
2019-05-02T21:59:59.771Z,101332.52
2019-05-02T22:02:27.638Z,101333.27
2019-05-02T22:04:55.435Z,101326.84
2019-05-02T22:07:23.381Z,101324.97
2019-05-02T22:09:56.393Z,101324.94
2019-05-02T22:12:24.200Z,101327.64
2019-05-02T22:14:53.801Z,101324.79
2019-05-02T22:17:23.164Z,101324.31
2019-05-02T22:19:52.473Z,101330.94
2019-05-02T22:22:22.690Z,101325.55
2019-05-02T22:24:52.672Z,101325.35
2019-05-02T22:27:21.753Z,101321.28
2019-05-02T22:29:49.924Z,101325.03
2019-05-02T22:32:17.674Z,101334.13
2019-05-02T22:34:45.627Z,101329.63
2019-05-02T22:37:15.481Z,101334.13
2019-05-02T22:39:57.246Z,101335.84
2019-05-02T22:42:25.254Z,101336.17
2019-05-02T22:44:52.985Z,101334.94
2019-05-02T22:47:22.738Z,101337.73
2019-05-02T22:49:51.846Z,101342.53
2019-05-02T22:52:21.816Z,101349.86
2019-05-02T22:54:52.279Z,101342.28
2019-05-02T22:57:22.591Z,101345.70
2019-05-02T22:59:51.636Z,101343.14
2019-05-02T23:02:21.894Z,101343.45
2019-05-02T23:04:49.633Z,101344.51
2019-05-02T23:07:17.417Z,101352.69
2019-05-02T23:09:45.743Z,101352.94
2019-05-02T23:12:13.690Z,101351.56
2019-05-02T23:14:41.889Z,101352.71
2019-05-02T23:17:12.512Z,101354.65
2019-05-02T23:19:42.191Z,101355.53
2019-05-02T23:22:12.677Z,101357.69
2019-05-02T23:25:14.690Z,101352.39
2019-05-02T23:27:46.586Z,101349.18
2019-05-02T23:30:17.337Z,101354.02
2019-05-02T23:32:45.063Z,101349.67
2019-05-02T23:35:12.918Z,101352.13
2019-05-02T23:37:42.266Z,101355.92
2019-05-02T23:40:12.451Z,101356.41
2019-05-02T23:42:41.705Z,101356.72
2019-05-02T23:45:09.743Z,101358.19
2019-05-02T23:47:39.414Z,101356.25
2019-05-02T23:50:07.329Z,101358.67
2019-05-02T23:52:41.289Z,101360.84
2019-05-02T23:55:09.515Z,101360.48
2019-05-02T23:57:37.258Z,101360.57
